createdAt,value
2019-03-16T00:04:01.396Z,95.50
2019-03-16T00:14:06.896Z,91.00
2019-03-16T00:24:12.375Z,91.70
2019-03-16T00:34:17.866Z,85.90
2019-03-16T00:44:23.307Z,85.30
2019-03-16T00:54:28.799Z,87.40
2019-03-16T01:04:34.369Z,88.30
2019-03-16T01:14:39.871Z,85.70
2019-03-16T01:24:45.567Z,86.40
2019-03-16T01:34:51.120Z,85.80
2019-03-16T01:44:56.598Z,86.40
2019-03-16T01:55:02.103Z,84.60
2019-03-16T02:05:08.366Z,84.70
2019-03-16T02:15:14.065Z,85.10
2019-03-16T02:25:19.674Z,84.60
2019-03-16T02:35:25.305Z,86.10
2019-03-16T02:45:32.151Z,84.10
2019-03-16T02:55:37.743Z,84.90
2019-03-16T03:05:43.280Z,85.80
2019-03-16T03:15:48.892Z,87.00
2019-03-16T03:25:54.442Z,88.60
2019-03-16T03:36:00.076Z,84.20
2019-03-16T03:46:05.671Z,76.20
2019-03-16T03:56:11.203Z,74.00
2019-03-16T04:06:16.713Z,75.10
2019-03-16T04:16:22.275Z,74.20
2019-03-16T04:26:27.953Z,74.40
2019-03-16T04:36:33.744Z,75.20
2019-03-16T04:46:39.375Z,75.40
2019-03-16T04:56:44.956Z,72.90
2019-03-16T05:06:50.595Z,73.00
2019-03-16T05:16:56.194Z,72.60
2019-03-16T05:27:01.799Z,72.30
2019-03-16T05:37:07.405Z,70.40
2019-03-16T05:47:12.965Z,70.80
2019-03-16T05:57:18.475Z,70.70
2019-03-16T06:07:24.074Z,70.90
2019-03-16T06:17:29.593Z,71.00
2019-03-16T06:27:36.906Z,70.40
2019-03-16T06:37:42.528Z,67.80
2019-03-16T06:47:48.078Z,69.90
2019-03-16T06:57:53.594Z,70.20
2019-03-16T07:07:59.114Z,71.60
2019-03-16T07:18:06.096Z,70.70
2019-03-16T07:28:11.598Z,70.50
2019-03-16T07:38:17.357Z,68.80
2019-03-16T07:48:22.922Z,67.90
2019-03-16T07:58:28.600Z,68.00
2019-03-16T08:08:34.112Z,68.10
2019-03-16T08:18:39.586Z,67.60
2019-03-16T08:28:45.114Z,65.00
2019-03-16T08:38:50.689Z,66.10
2019-03-16T08:48:56.314Z,67.80
2019-03-16T08:59:01.787Z,68.50
2019-03-16T09:09:07.839Z,68.30
2019-03-16T09:19:15.359Z,69.30
2019-03-16T09:29:21.235Z,65.30
2019-03-16T09:39:27.197Z,63.10
2019-03-16T09:49:33.440Z,62.00
2019-03-16T09:59:39.923Z,64.10
2019-03-16T10:09:46.234Z,63.40
2019-03-16T10:19:51.838Z,61.20
2019-03-16T10:29:57.476Z,59.90
2019-03-16T10:40:03.101Z,59.30
2019-03-16T10:50:15.467Z,56.10
2019-03-16T11:00:23.919Z,56.70
2019-03-16T11:10:29.557Z,54.80
2019-03-16T11:20:35.195Z,52.60
2019-03-16T11:30:40.803Z,54.40
2019-03-16T11:40:46.446Z,54.30
2019-03-16T11:50:52.009Z,54.00
2019-03-16T12:00:57.510Z,52.80
2019-03-16T12:11:03.171Z,52.10
2019-03-16T12:21:08.759Z,51.10
2019-03-16T12:31:14.479Z,52.50
2019-03-16T12:41:20.053Z,52.00
2019-03-16T12:51:25.680Z,50.20
2019-03-16T13:01:31.406Z,48.50
2019-03-16T13:11:37.244Z,49.50
2019-03-16T13:21:43.978Z,49.50
2019-03-16T13:31:49.778Z,50.20
2019-03-16T13:41:55.331Z,48.80
2019-03-16T13:52:02.716Z,50.80
2019-03-16T14:02:08.823Z,49.70
2019-03-16T14:12:16.257Z,50.90
2019-03-16T14:22:22.277Z,51.80
2019-03-16T14:32:28.178Z,55.00
2019-03-16T14:42:34.115Z,59.20
2019-03-16T15:24:52.075Z,73.30
2019-03-16T15:34:59.002Z,74.50
2019-03-16T15:45:07.452Z,79.00
2019-03-16T15:55:13.430Z,78.20
2019-03-16T16:05:19.478Z,78.20
2019-03-16T16:15:25.479Z,77.40
2019-03-16T16:25:31.546Z,76.80
2019-03-16T16:35:37.332Z,77.40
2019-03-16T16:45:43.239Z,78.40
2019-03-16T16:55:49.355Z,79.90
2019-03-16T17:05:55.492Z,80.10
2019-03-16T17:16:01.388Z,82.80
2019-03-16T17:26:07.283Z,86.70
2019-03-16T17:36:14.936Z,90.50
2019-03-16T17:46:20.874Z,93.10
2019-03-16T17:56:26.899Z,96.10
2019-03-16T18:06:32.948Z,97.30
2019-03-16T18:16:38.875Z,98.70
2019-03-16T18:26:44.849Z,99.40
2019-03-16T18:36:50.858Z,99.80
2019-03-16T18:46:56.984Z,99.70
2019-03-16T18:57:04.715Z,99.70
2019-03-16T19:07:10.796Z,99.50
2019-03-16T19:17:16.826Z,99.20
2019-03-16T19:27:23.237Z,98.90
2019-03-16T19:37:29.992Z,98.60
2019-03-16T19:47:35.917Z,98.30
2019-03-16T19:57:41.932Z,97.90
2019-03-16T20:07:47.879Z,97.80
2019-03-16T20:17:53.836Z,97.60
2019-03-16T20:27:59.853Z,97.70
2019-03-16T20:38:05.932Z,97.70
2019-03-16T20:48:11.675Z,97.90
2019-03-16T20:58:17.729Z,98.00
2019-03-16T21:08:23.571Z,98.10
2019-03-16T21:18:29.487Z,98.30
2019-03-16T21:28:35.389Z,98.20
2019-03-16T21:38:41.234Z,98.40
2019-03-16T21:48:47.114Z,98.10
2019-03-16T21:58:52.845Z,97.90
2019-03-16T22:08:58.525Z,97.70
2019-03-16T22:19:04.331Z,97.80
2019-03-16T22:29:09.839Z,97.60
2019-03-16T22:39:15.429Z,97.40
2019-03-16T22:49:20.932Z,97.40
2019-03-16T22:59:28.430Z,97.60
2019-03-16T23:09:33.994Z,97.60
2019-03-16T23:19:39.594Z,97.50
2019-03-16T23:29:45.157Z,97.50
2019-03-16T23:39:51.117Z,97.40
2019-03-16T23:49:56.715Z,97.20
